sensor_id;sensor_type;location;lat;lon;timestamp;P1;durP1;ratioP1;P2;durP2;ratioP2
52023;SDS011;38038;45.922;13.604;2023-02-01T00:00:32;22.93;;;21.03;;
52023;SDS011;38038;45.922;13.604;2023-02-01T00:02:59;20.83;;;19.03;;
52023;SDS011;38038;45.922;13.604;2023-02-01T00:05:25;21.93;;;20.10;;
52023;SDS011;38038;45.922;13.604;2023-02-01T00:07:51;24.40;;;22.23;;
52023;SDS011;38038;45.922;13.604;2023-02-01T00:10:16;23.30;;;21.30;;
52023;SDS011;38038;45.922;13.604;2023-02-01T00:12:43;23.90;;;21.70;;
52023;SDS011;38038;45.922;13.604;2023-02-01T00:15:09;22.57;;;20.67;;
52023;SDS011;38038;45.922;13.604;2023-02-01T00:17:35;21.90;;;20.03;;
52023;SDS011;38038;45.922;13.604;2023-02-01T00:20:00;23.43;;;21.23;;
52023;SDS011;38038;45.922;13.604;2023-02-01T00:22:27;22.50;;;20.50;;
52023;SDS011;38038;45.922;13.604;2023-02-01T00:24:52;23.17;;;21.17;;
52023;SDS011;38038;45.922;13.604;2023-02-01T00:27:18;23.80;;;21.70;;
52023;SDS011;38038;45.922;13.604;2023-02-01T00:29:46;22.50;;;20.67;;
52023;SDS011;38038;45.922;13.604;2023-02-01T00:32:12;20.27;;;18.37;;
52023;SDS011;38038;45.922;13.604;2023-02-01T00:34:38;22.90;;;19.20;;
52023;SDS011;38038;45.922;13.604;2023-02-01T00:37:03;19.87;;;18.30;;
52023;SDS011;38038;45.922;13.604;2023-02-01T00:39:29;23.37;;;21.27;;
52023;SDS011;38038;45.922;13.604;2023-02-01T00:41:55;22.80;;;20.57;;
52023;SDS011;38038;45.922;13.604;2023-02-01T00:44:20;21.17;;;19.37;;
52023;SDS011;38038;45.922;13.604;2023-02-01T00:46:46;21.23;;;19.33;;
52023;SDS011;38038;45.922;13.604;2023-02-01T00:49:12;23.03;;;19.57;;
52023;SDS011;38038;45.922;13.604;2023-02-01T00:51:37;21.37;;;19.43;;
52023;SDS011;38038;45.922;13.604;2023-02-01T00:54:03;19.83;;;17.73;;
52023;SDS011;38038;45.922;13.604;2023-02-01T00:56:29;19.10;;;17.50;;
52023;SDS011;38038;45.922;13.604;2023-02-01T00:58:55;19.63;;;17.90;;
52023;SDS011;38038;45.922;13.604;2023-02-01T01:01:26;20.40;;;18.27;;
52023;SDS011;38038;45.922;13.604;2023-02-01T01:03:53;20.33;;;18.57;;
52023;SDS011;38038;45.922;13.604;2023-02-01T01:06:24;21.33;;;19.40;;
52023;SDS011;38038;45.922;13.604;2023-02-01T01:08:56;21.10;;;19.03;;
52023;SDS011;38038;45.922;13.604;2023-02-01T01:11:24;20.37;;;18.50;;
52023;SDS011;38038;45.922;13.604;2023-02-01T01:13:52;20.67;;;18.80;;
52023;SDS011;38038;45.922;13.604;2023-02-01T01:16:20;21.03;;;19.33;;
52023;SDS011;38038;45.922;13.604;2023-02-01T01:18:47;20.10;;;18.23;;
52023;SDS011;38038;45.922;13.604;2023-02-01T01:21:13;20.13;;;18.60;;
52023;SDS011;38038;45.922;13.604;2023-02-01T01:23:40;20.33;;;18.57;;
52023;SDS011;38038;45.922;13.604;2023-02-01T01:26:28;20.33;;;18.63;;
52023;SDS011;38038;45.922;13.604;2023-02-01T01:28:54;19.30;;;17.70;;
52023;SDS011;38038;45.922;13.604;2023-02-01T01:31:21;20.07;;;18.47;;
52023;SDS011;38038;45.922;13.604;2023-02-01T01:33:48;20.50;;;18.57;;
52023;SDS011;38038;45.922;13.604;2023-02-01T01:36:16;19.13;;;17.43;;
52023;SDS011;38038;45.922;13.604;2023-02-01T01:38:42;19.80;;;18.10;;
52023;SDS011;38038;45.922;13.604;2023-02-01T01:41:08;19.83;;;18.03;;
52023;SDS011;38038;45.922;13.604;2023-02-01T01:43:49;19.97;;;18.10;;
52023;SDS011;38038;45.922;13.604;2023-02-01T01:46:19;21.30;;;19.33;;
52023;SDS011;38038;45.922;13.604;2023-02-01T01:48:51;19.97;;;18.20;;
52023;SDS011;38038;45.922;13.604;2023-02-01T01:51:23;20.37;;;18.67;;
52023;SDS011;38038;45.922;13.604;2023-02-01T01:53:57;21.07;;;19.23;;
52023;SDS011;38038;45.922;13.604;2023-02-01T01:56:27;20.10;;;18.17;;
52023;SDS011;38038;45.922;13.604;2023-02-01T01:58:54;21.10;;;19.03;;
52023;SDS011;38038;45.922;13.604;2023-02-01T02:01:21;20.13;;;18.20;;
52023;SDS011;38038;45.922;13.604;2023-02-01T02:03:46;21.27;;;17.70;;
52023;SDS011;38038;45.922;13.604;2023-02-01T02:06:56;22.17;;;20.20;;
52023;SDS011;38038;45.922;13.604;2023-02-01T02:09:12;20.03;;;18.43;;
52023;SDS011;38038;45.922;13.604;2023-02-01T02:11:39;21.37;;;19.20;;
52023;SDS011;38038;45.922;13.604;2023-02-01T02:14:06;20.83;;;18.80;;
52023;SDS011;38038;45.922;13.604;2023-02-01T02:25:55;21.83;;;20.00;;
52023;SDS011;38038;45.922;13.604;2023-02-01T02:42:17;20.13;;;18.60;;
52023;SDS011;38038;45.922;13.604;2023-02-01T02:45:18;20.40;;;18.60;;
52023;SDS011;38038;45.922;13.604;2023-02-01T02:48:17;20.93;;;19.23;;
52023;SDS011;38038;45.922;13.604;2023-02-01T02:51:04;21.77;;;19.90;;
52023;SDS011;38038;45.922;13.604;2023-02-01T02:57:14;21.27;;;19.10;;
52023;SDS011;38038;45.922;13.604;2023-02-01T03:00:03;22.30;;;20.10;;
52023;SDS011;38038;45.922;13.604;2023-02-01T03:02:51;20.43;;;18.67;;
52023;SDS011;38038;45.922;13.604;2023-02-01T03:05:39;19.75;;;18.13;;
52023;SDS011;38038;45.922;13.604;2023-02-01T03:08:16;20.90;;;19.30;;
52023;SDS011;38038;45.922;13.604;2023-02-01T23:22:18;74.27;;;65.23;;
52023;SDS011;38038;45.922;13.604;2023-02-01T23:24:44;77.33;;;63.97;;
52023;SDS011;38038;45.922;13.604;2023-02-01T23:27:09;70.53;;;62.87;;
52023;SDS011;38038;45.922;13.604;2023-02-01T23:29:35;75.73;;;58.90;;
52023;SDS011;38038;45.922;13.604;2023-02-01T23:32:01;61.10;;;54.53;;
52023;SDS011;38038;45.922;13.604;2023-02-01T23:34:26;60.13;;;53.93;;
52023;SDS011;38038;45.922;13.604;2023-02-01T23:36:52;67.57;;;60.33;;
52023;SDS011;38038;45.922;13.604;2023-02-01T23:39:18;115.97;;;77.13;;
52023;SDS011;38038;45.922;13.604;2023-02-01T23:41:43;83.27;;;66.13;;
52023;SDS011;38038;45.922;13.604;2023-02-01T23:44:09;77.50;;;62.60;;
52023;SDS011;38038;45.922;13.604;2023-02-01T23:46:36;65.63;;;56.27;;
52023;SDS011;38038;45.922;13.604;2023-02-01T23:49:03;73.43;;;59.30;;
52023;SDS011;38038;45.922;13.604;2023-02-01T23:51:31;69.57;;;56.63;;
52023;SDS011;38038;45.922;13.604;2023-02-01T23:53:57;69.70;;;55.47;;
52023;SDS011;38038;45.922;13.604;2023-02-01T23:56:27;60.93;;;54.07;;
52023;SDS011;38038;45.922;13.604;2023-02-01T23:58:57;59.33;;;49.97;;
